Sparta, Tennessee
Current Conditions -  °F | °C
As of 2:55 PM on Tuesday 25 Nov 2014 (Local Time) from KSRB Reporting Station
Clear Clear  
Wind Chill: 50°   Ceiling: Unl
Heat Index: 50°   Visibility: 10mi
Dew Point: 30°   Wind: 5mph
Humidity: 47%   Direction: 10°N
Pressure: 30.08"   Gusts: NA
Location:  35.93°N, 85.46°W
Report Text: KSRB 252055Z AUTO 01004KT 10SM CLR 10/M01 A3008 RMK
Loading
Personal Weather Stations






























Interactive Weather Map New forecast layout! Learn more

10-Day Weather Forecast

Advertisements
Track Severe Weather on mobile